createdAt,value
2019-05-18T00:02:21.519Z,10.30
2019-05-18T00:04:57.783Z,10.30
2019-05-18T00:07:34.077Z,10.30
2019-05-18T00:10:12.172Z,10.20
2019-05-18T00:12:48.544Z,10.30
2019-05-18T00:15:25.021Z,10.30
2019-05-18T00:18:01.436Z,10.30
2019-05-18T00:20:37.691Z,10.30
2019-05-18T00:23:13.918Z,10.30
2019-05-18T00:25:50.269Z,10.30
2019-05-18T00:28:26.653Z,10.30
2019-05-18T00:31:02.986Z,10.30
2019-05-18T00:33:39.240Z,10.30
2019-05-18T00:36:15.553Z,10.40
2019-05-18T00:38:51.770Z,10.50
2019-05-18T00:41:28.304Z,10.60
2019-05-18T00:44:04.775Z,10.60
2019-05-18T00:46:40.937Z,10.50
2019-05-18T00:49:17.188Z,10.50
2019-05-18T00:51:53.652Z,10.40
2019-05-18T00:54:29.835Z,10.40
2019-05-18T00:57:06.060Z,10.30
2019-05-18T00:59:42.489Z,10.30
2019-05-18T01:02:19.798Z,10.30
2019-05-18T01:04:56.005Z,10.30
2019-05-18T01:07:32.295Z,10.30
2019-05-18T01:10:09.213Z,10.30
2019-05-18T01:12:45.386Z,10.20
2019-05-18T01:15:21.749Z,10.20
2019-05-18T01:18:01.866Z,10.10
2019-05-18T01:20:35.870Z,10.00
2019-05-18T01:23:12.487Z,10.00
2019-05-18T01:25:48.700Z,9.90
2019-05-18T01:28:24.910Z,9.90
2019-05-18T01:31:01.266Z,9.90
2019-05-18T01:33:37.604Z,9.80
2019-05-18T01:36:16.876Z,9.70
2019-05-18T01:38:53.184Z,9.70
2019-05-18T01:41:29.371Z,9.80
2019-05-18T01:44:05.587Z,9.80
2019-05-18T01:46:41.895Z,9.80
2019-05-18T01:49:18.146Z,9.90
2019-05-18T01:51:54.452Z,9.90
2019-05-18T01:54:30.855Z,10.00
2019-05-18T01:57:07.062Z,9.90
2019-05-18T01:59:43.310Z,9.90
2019-05-18T02:02:19.539Z,10.00
2019-05-18T02:04:55.872Z,10.10
2019-05-18T02:07:32.112Z,10.10
2019-05-18T02:10:08.658Z,10.10
2019-05-18T02:12:44.881Z,10.00
2019-05-18T02:15:21.134Z,10.00
2019-05-18T02:17:57.286Z,10.10
2019-05-18T02:20:33.543Z,10.10
2019-05-18T02:23:09.867Z,10.10
2019-05-18T02:25:46.130Z,10.10
2019-05-18T02:28:22.276Z,10.10
2019-05-18T02:30:58.537Z,10.10
2019-05-18T02:33:34.768Z,10.00
2019-05-18T02:36:11.012Z,10.00
2019-05-18T02:38:47.277Z,10.00
2019-05-18T02:41:23.506Z,10.00
2019-05-18T02:43:59.760Z,9.90
2019-05-18T02:46:36.019Z,9.90
2019-05-18T02:49:12.286Z,9.80
2019-05-18T02:51:48.454Z,9.70
2019-05-18T02:54:24.720Z,9.70
2019-05-18T02:57:01.260Z,9.70
2019-05-18T02:59:37.417Z,9.80
2019-05-18T03:02:13.556Z,9.80
2019-05-18T03:04:49.828Z,9.80
2019-05-18T03:07:26.032Z,9.90
2019-05-18T03:10:02.352Z,9.90
2019-05-18T03:12:38.606Z,10.00
2019-05-18T03:15:14.916Z,10.00
2019-05-18T03:17:51.163Z,10.00
2019-05-18T03:20:27.348Z,10.00
2019-05-18T03:23:03.610Z,9.90
2019-05-18T03:25:39.854Z,9.80
2019-05-18T03:28:16.114Z,9.90
2019-05-18T03:30:52.335Z,9.90
2019-05-18T03:33:30.204Z,10.00
2019-05-18T03:36:06.625Z,10.10
2019-05-18T03:38:42.865Z,10.10
2019-05-18T03:41:19.065Z,10.10
2019-05-18T03:43:55.350Z,10.10
2019-05-18T03:46:31.601Z,9.90
2019-05-18T03:49:23.601Z,9.80
2019-05-18T03:51:45.657Z,9.80
2019-05-18T03:54:21.794Z,9.70
2019-05-18T03:56:58.023Z,9.70
2019-05-18T03:59:34.572Z,9.80
2019-05-18T04:02:10.809Z,10.00
2019-05-18T04:04:47.036Z,10.00
2019-05-18T04:07:23.270Z,10.20
2019-05-18T04:09:59.484Z,10.30
2019-05-18T04:12:35.795Z,10.50
2019-05-18T04:15:12.231Z,10.60
2019-05-18T04:17:48.447Z,10.80
2019-05-18T04:20:24.711Z,10.90
2019-05-18T04:23:00.856Z,11.10
2019-05-18T04:25:37.035Z,11.20
2019-05-18T04:28:14.978Z,11.40
2019-05-18T04:30:51.337Z,11.50
2019-05-18T04:33:27.559Z,11.60
2019-05-18T04:36:03.755Z,11.70
2019-05-18T04:38:39.970Z,11.70
2019-05-18T04:41:16.239Z,11.70
2019-05-18T04:43:52.508Z,11.80
2019-05-18T04:46:29.802Z,12.00
2019-05-18T04:49:06.052Z,12.10
2019-05-18T04:51:42.302Z,12.30
2019-05-18T04:54:18.535Z,12.50
2019-05-18T04:56:54.797Z,12.70
2019-05-18T04:59:31.025Z,12.90
2019-05-18T05:02:07.296Z,13.10
2019-05-18T05:04:43.478Z,13.30
2019-05-18T05:07:19.690Z,13.60
2019-05-18T05:09:56.076Z,13.80
2019-05-18T05:12:32.268Z,13.90
2019-05-18T05:15:08.507Z,14.20
2019-05-18T05:17:44.769Z,14.40
2019-05-18T05:20:21.045Z,14.60
2019-05-18T05:22:57.281Z,14.80
2019-05-18T05:25:36.137Z,15.10
2019-05-18T05:28:11.585Z,15.30
2019-05-18T05:30:47.880Z,15.70
2019-05-18T05:33:26.983Z,16.00
2019-05-18T05:36:03.612Z,16.20
2019-05-18T05:38:39.827Z,16.40
2019-05-18T05:41:16.843Z,16.30
2019-05-18T05:43:53.318Z,16.30
2019-05-18T05:46:29.627Z,16.40
2019-05-18T05:49:05.919Z,16.40
2019-05-18T05:51:42.126Z,16.30
2019-05-18T05:54:18.392Z,16.50
2019-05-18T05:56:54.614Z,16.60
2019-05-18T05:59:30.881Z,16.60
2019-05-18T06:02:07.162Z,16.40
2019-05-18T06:04:43.576Z,16.30
2019-05-18T06:07:19.739Z,16.30
2019-05-18T06:09:56.076Z,16.30
2019-05-18T06:12:32.317Z,16.10
2019-05-18T06:15:10.552Z,16.20
2019-05-18T06:17:46.767Z,16.30
2019-05-18T06:20:23.157Z,16.50
2019-05-18T06:22:59.509Z,16.90
2019-05-18T06:25:35.877Z,17.20
2019-05-18T06:28:12.176Z,17.60
2019-05-18T06:30:48.715Z,17.80
2019-05-18T06:33:24.861Z,18.20
2019-05-18T06:36:02.413Z,18.30
2019-05-18T06:38:42.532Z,18.60
2019-05-18T06:41:18.919Z,18.60
2019-05-18T06:44:00.028Z,18.80
2019-05-18T06:46:36.351Z,19.20
2019-05-18T06:49:12.661Z,19.20
2019-05-18T06:51:48.870Z,19.50
2019-05-18T06:54:25.124Z,19.50
2019-05-18T06:57:02.664Z,19.80
2019-05-18T06:59:38.933Z,19.80
2019-05-18T07:02:15.192Z,20.00
2019-05-18T07:04:54.273Z,20.00
2019-05-18T07:07:30.769Z,20.30
2019-05-18T07:10:08.134Z,20.50
2019-05-18T07:12:44.376Z,20.60
2019-05-18T07:15:21.440Z,20.90
2019-05-18T07:17:58.120Z,20.90
2019-05-18T07:20:34.313Z,20.80
2019-05-18T07:23:10.579Z,21.00
2019-05-18T07:25:46.852Z,21.10
2019-05-18T07:28:24.876Z,20.50
2019-05-18T07:31:01.371Z,20.20
2019-05-18T07:33:47.914Z,20.40
2019-05-18T07:36:24.181Z,20.80
2019-05-18T07:39:00.502Z,21.00
2019-05-18T07:41:46.176Z,20.90
2019-05-18T07:44:14.731Z,21.20
2019-05-18T07:46:50.969Z,21.40
2019-05-18T07:49:27.494Z,21.60
2019-05-18T07:52:03.980Z,21.90
2019-05-18T07:54:40.320Z,21.90
2019-05-18T07:57:16.421Z,22.00
2019-05-18T07:59:54.074Z,22.20
2019-05-18T08:02:30.443Z,22.30
2019-05-18T08:05:08.091Z,22.50
2019-05-18T08:07:45.815Z,22.50
2019-05-18T08:10:48.953Z,22.70
2019-05-18T08:13:25.302Z,22.80
2019-05-18T08:16:03.401Z,22.50
2019-05-18T08:18:41.219Z,22.50
2019-05-18T08:21:18.870Z,22.50
2019-05-18T08:23:55.264Z,22.90
2019-05-18T08:26:31.484Z,23.00
2019-05-18T08:29:07.909Z,23.10
2019-05-18T08:31:45.966Z,23.50
2019-05-18T08:34:26.836Z,23.50
2019-05-18T08:37:04.930Z,23.40
2019-05-18T08:39:41.227Z,23.70
2019-05-18T08:42:27.982Z,23.50
2019-05-18T08:45:08.255Z,23.60
2019-05-18T08:47:44.496Z,23.90
2019-05-18T08:50:20.742Z,23.90
2019-05-18T08:52:57.024Z,23.70
2019-05-18T08:55:33.280Z,23.70
2019-05-18T08:58:09.603Z,23.90
2019-05-18T09:00:45.826Z,23.80
2019-05-18T09:03:21.998Z,24.00
2019-05-18T09:05:58.198Z,24.00
2019-05-18T09:08:34.480Z,24.30
2019-05-18T09:11:10.752Z,24.60
2019-05-18T09:13:47.028Z,24.40
2019-05-18T09:16:23.225Z,24.50
2019-05-18T09:18:59.396Z,24.60
2019-05-18T09:21:35.544Z,25.00
2019-05-18T09:24:11.794Z,25.50
2019-05-18T09:26:47.976Z,25.70
2019-05-18T09:29:24.205Z,25.50
2019-05-18T09:32:00.409Z,25.50
2019-05-18T09:34:36.724Z,25.70
2019-05-18T09:37:12.862Z,25.40
2019-05-18T09:39:49.107Z,25.10
2019-05-18T09:42:25.362Z,25.50
2019-05-18T09:45:01.625Z,25.30
2019-05-18T09:47:37.841Z,24.80
2019-05-18T09:50:14.261Z,25.30
2019-05-18T09:52:50.941Z,24.80
2019-05-18T09:55:27.171Z,24.50
2019-05-18T09:58:03.359Z,24.70
2019-05-18T10:00:39.592Z,24.80
2019-05-18T10:03:15.845Z,25.00
2019-05-18T10:05:52.041Z,25.10
2019-05-18T10:08:28.248Z,25.40
2019-05-18T10:11:04.429Z,25.40
2019-05-18T10:13:41.255Z,25.60
2019-05-18T10:16:17.454Z,25.30
2019-05-18T10:18:53.603Z,25.30
2019-05-18T10:21:29.863Z,25.70
2019-05-18T10:24:06.105Z,25.60
2019-05-18T10:26:42.305Z,25.50
2019-05-18T10:29:18.536Z,25.70
2019-05-18T10:31:54.800Z,26.10
2019-05-18T10:34:31.036Z,26.00
2019-05-18T10:37:07.287Z,26.10
2019-05-18T10:39:43.524Z,25.60
2019-05-18T10:42:19.744Z,25.70
2019-05-18T10:44:55.908Z,25.90
2019-05-18T10:47:32.060Z,26.10
2019-05-18T10:50:09.808Z,26.30
2019-05-18T10:52:46.040Z,26.40
2019-05-18T10:55:22.314Z,26.50
2019-05-18T10:57:58.642Z,26.60
2019-05-18T11:00:34.952Z,26.60
2019-05-18T11:03:11.103Z,26.10
2019-05-18T11:05:47.277Z,26.00
2019-05-18T11:08:23.409Z,26.10
2019-05-18T11:10:59.667Z,26.20
2019-05-18T11:13:35.959Z,26.40
2019-05-18T11:16:12.185Z,26.50
2019-05-18T11:18:48.354Z,26.40
2019-05-18T11:21:24.531Z,26.20
2019-05-18T11:24:00.745Z,25.90
2019-05-18T11:26:37.018Z,25.80
2019-05-18T11:29:13.160Z,26.10
2019-05-18T11:31:49.331Z,26.40
2019-05-18T11:34:25.481Z,26.70
2019-05-18T11:37:03.256Z,26.10
2019-05-18T11:39:39.575Z,26.40
2019-05-18T11:42:15.818Z,26.50
2019-05-18T11:44:52.210Z,26.60
2019-05-18T11:47:28.549Z,26.50
2019-05-18T11:50:07.102Z,25.90
2019-05-18T11:52:43.465Z,25.80
2019-05-18T11:55:19.809Z,26.00
2019-05-18T11:57:56.056Z,26.40
2019-05-18T12:00:32.321Z,26.30
2019-05-18T12:03:08.524Z,26.30
2019-05-18T12:05:44.761Z,26.30
2019-05-18T12:08:20.988Z,26.40
2019-05-18T12:10:57.254Z,26.20
2019-05-18T12:13:33.538Z,26.30
2019-05-18T12:16:09.753Z,26.30
2019-05-18T12:18:45.940Z,26.40
2019-05-18T12:21:22.142Z,26.50
2019-05-18T12:24:13.745Z,26.80
2019-05-18T12:26:36.245Z,26.90
2019-05-18T12:29:12.436Z,26.70
2019-05-18T12:31:55.618Z,26.50
2019-05-18T12:34:31.889Z,26.80
2019-05-18T12:37:09.945Z,27.00
2019-05-18T12:39:46.095Z,26.90
2019-05-18T12:42:22.944Z,26.80
2019-05-18T12:44:59.184Z,26.60
2019-05-18T12:47:35.437Z,26.90
2019-05-18T12:50:11.925Z,26.80
2019-05-18T12:52:48.255Z,26.30
2019-05-18T12:55:24.472Z,26.10
2019-05-18T12:58:00.684Z,25.90
2019-05-18T13:00:36.904Z,25.10
2019-05-18T13:03:13.273Z,24.20
2019-05-18T13:05:49.429Z,23.50
2019-05-18T13:08:25.735Z,23.30
2019-05-18T13:11:02.038Z,23.40
2019-05-18T13:13:38.292Z,23.00
2019-05-18T13:16:14.450Z,22.80
2019-05-18T13:18:50.725Z,22.50
2019-05-18T13:21:26.992Z,22.50
2019-05-18T13:24:03.348Z,22.80
2019-05-18T13:26:39.562Z,22.50
2019-05-18T13:29:15.771Z,22.70
2019-05-18T13:31:51.853Z,23.00
2019-05-18T13:34:28.133Z,23.10
2019-05-18T13:37:04.409Z,23.50
2019-05-18T13:39:40.663Z,23.90
2019-05-18T13:42:16.929Z,24.10
2019-05-18T13:44:53.159Z,24.30
2019-05-18T13:47:29.361Z,24.30
2019-05-18T13:50:06.588Z,24.40
2019-05-18T13:52:42.974Z,24.50
2019-05-18T13:55:19.593Z,24.40
2019-05-18T13:57:55.843Z,23.90
2019-05-18T14:00:32.053Z,23.90
2019-05-18T14:03:08.408Z,24.20
2019-05-18T14:05:44.568Z,24.10
2019-05-18T14:08:20.818Z,23.80
2019-05-18T14:10:56.956Z,23.50
2019-05-18T14:13:33.227Z,23.10
2019-05-18T14:16:09.478Z,22.80
2019-05-18T14:18:45.771Z,22.50
2019-05-18T14:21:21.996Z,22.30
2019-05-18T14:23:58.145Z,22.20
2019-05-18T14:26:34.346Z,22.50
2019-05-18T14:29:11.038Z,22.70
2019-05-18T14:31:47.363Z,23.00
2019-05-18T14:34:23.608Z,23.20
2019-05-18T14:36:59.789Z,23.30
2019-05-18T14:39:35.979Z,23.60
2019-05-18T14:42:12.343Z,23.50
2019-05-18T14:44:48.603Z,23.70
2019-05-18T14:47:27.417Z,23.80
2019-05-18T14:50:02.714Z,23.70
2019-05-18T14:52:38.998Z,23.50
2019-05-18T14:55:15.448Z,23.30
2019-05-18T14:57:51.767Z,23.30
2019-05-18T15:00:28.064Z,23.10
2019-05-18T15:03:04.349Z,22.80
2019-05-18T15:05:40.639Z,22.30
2019-05-18T15:08:16.970Z,22.00
2019-05-18T15:10:53.434Z,21.80
2019-05-18T15:13:29.809Z,21.70
2019-05-18T15:16:06.316Z,21.40
2019-05-18T15:18:42.533Z,21.40
2019-05-18T15:21:18.897Z,21.70
2019-05-18T15:23:55.110Z,21.90
2019-05-18T15:26:31.401Z,22.00
2019-05-18T15:29:07.701Z,21.80
2019-05-18T15:31:44.031Z,21.50
2019-05-18T15:34:20.353Z,21.30
2019-05-18T15:36:56.647Z,21.20
2019-05-18T15:39:33.052Z,20.90
2019-05-18T15:42:09.328Z,20.60
2019-05-18T15:44:45.690Z,20.50
2019-05-18T15:47:22.127Z,20.40
2019-05-18T15:49:58.515Z,20.30
2019-05-18T15:52:34.746Z,20.40
2019-05-18T15:55:11.142Z,20.20
2019-05-18T15:57:47.512Z,20.10
2019-05-18T16:00:23.775Z,20.10
2019-05-18T16:03:00.022Z,20.20
2019-05-18T16:05:36.564Z,20.30
2019-05-18T16:08:12.865Z,20.30
2019-05-18T16:10:49.251Z,20.20
2019-05-18T16:13:29.868Z,20.10
2019-05-18T16:16:07.853Z,20.00
2019-05-18T16:18:45.559Z,19.90
2019-05-18T16:21:32.294Z,19.80
2019-05-18T16:27:06.869Z,19.70
2019-05-18T16:29:50.409Z,19.80
2019-05-18T16:32:27.003Z,19.90
2019-05-18T16:35:03.588Z,19.90
2019-05-18T16:37:40.002Z,19.90
2019-05-18T16:40:16.818Z,19.90
2019-05-18T16:42:57.458Z,19.80
2019-05-18T16:45:39.581Z,19.70
2019-05-18T16:48:18.883Z,19.70
2019-05-18T16:50:57.064Z,19.60
2019-05-18T16:53:36.873Z,19.60
2019-05-18T16:56:13.197Z,19.60
2019-05-18T16:58:49.414Z,19.60
2019-05-18T17:01:25.671Z,19.50
2019-05-18T17:04:04.794Z,19.50
2019-05-18T17:07:00.168Z,19.40
2019-05-18T17:09:42.527Z,19.40
2019-05-18T17:12:18.787Z,19.40
2019-05-18T17:14:54.939Z,19.30
2019-05-18T17:17:35.108Z,19.30
2019-05-18T17:20:10.195Z,19.20
2019-05-18T17:22:46.524Z,19.20
2019-05-18T17:25:22.702Z,19.10
2019-05-18T17:27:58.979Z,19.10
2019-05-18T17:30:38.469Z,19.00
2019-05-18T17:33:17.796Z,18.90
2019-05-18T17:36:07.265Z,18.80
2019-05-18T17:38:56.709Z,18.80
2019-05-18T17:41:33.407Z,18.70
2019-05-18T17:47:35.717Z,18.60
2019-05-18T17:50:12.455Z,18.40
2019-05-18T17:52:48.920Z,18.40
2019-05-18T17:55:25.190Z,18.30
2019-05-18T17:58:01.368Z,18.20
2019-05-18T18:00:38.226Z,18.10
2019-05-18T18:03:14.403Z,18.00
2019-05-18T18:05:51.215Z,17.80
2019-05-18T18:08:27.944Z,17.70
2019-05-18T18:11:04.284Z,17.60
2019-05-18T18:13:40.615Z,17.50
2019-05-18T18:16:16.986Z,17.50
2019-05-18T18:18:53.242Z,17.40
2019-05-18T18:21:29.592Z,17.30
2019-05-18T18:24:06.074Z,17.20
2019-05-18T18:26:42.296Z,17.10
2019-05-18T18:29:18.557Z,17.10
2019-05-18T18:31:54.854Z,17.00
2019-05-18T18:34:31.193Z,16.90
2019-05-18T18:37:07.631Z,16.80
2019-05-18T18:39:43.899Z,16.60
2019-05-18T18:42:20.166Z,16.50
2019-05-18T18:44:56.671Z,16.40
2019-05-18T18:47:32.979Z,16.30
2019-05-18T18:50:09.629Z,16.20
2019-05-18T18:52:46.005Z,16.10
2019-05-18T18:55:22.448Z,16.00
2019-05-18T18:57:58.657Z,16.00
2019-05-18T19:00:34.894Z,15.90
2019-05-18T19:03:11.107Z,15.80
2019-05-18T19:05:47.313Z,15.80
2019-05-18T19:08:23.635Z,15.70
2019-05-18T19:11:00.069Z,15.70
2019-05-18T19:13:36.281Z,15.70
2019-05-18T19:16:12.497Z,15.60
2019-05-18T19:18:48.795Z,15.60
2019-05-18T19:21:25.075Z,15.50
2019-05-18T19:24:01.325Z,15.50
2019-05-18T19:26:37.635Z,15.50
2019-05-18T19:29:14.246Z,15.40
2019-05-18T19:31:50.469Z,15.40
2019-05-18T19:34:26.755Z,15.30
2019-05-18T19:37:03.024Z,15.20
2019-05-18T19:39:39.342Z,15.10
2019-05-18T19:42:15.737Z,15.00
2019-05-18T19:44:55.030Z,15.00
2019-05-18T19:47:31.281Z,14.90
2019-05-18T19:50:07.932Z,14.90
2019-05-18T19:52:44.147Z,14.80
2019-05-18T19:55:20.394Z,14.80
2019-05-18T19:58:08.068Z,14.70
2019-05-18T20:00:34.507Z,14.70
2019-05-18T20:03:10.840Z,14.70
2019-05-18T20:05:47.055Z,14.60
2019-05-18T20:08:23.259Z,14.60
2019-05-18T20:10:59.595Z,14.60
2019-05-18T20:13:35.786Z,14.60
2019-05-18T20:16:12.015Z,14.50
2019-05-18T20:18:48.219Z,14.40
2019-05-18T20:21:24.390Z,14.40
2019-05-18T20:24:00.629Z,14.30
2019-05-18T20:26:36.855Z,14.30
2019-05-18T20:29:13.140Z,14.30
2019-05-18T20:31:49.379Z,14.20
2019-05-18T20:34:25.707Z,14.20
2019-05-18T20:37:02.077Z,14.10
2019-05-18T20:39:38.313Z,14.00
2019-05-18T20:42:14.576Z,14.00
2019-05-18T20:44:50.844Z,13.90
2019-05-18T20:47:27.110Z,13.80
2019-05-18T20:50:04.120Z,13.80
2019-05-18T20:52:40.379Z,13.70
2019-05-18T20:55:16.636Z,13.70
2019-05-18T20:57:52.853Z,13.70
2019-05-18T21:00:29.060Z,13.60
2019-05-18T21:03:05.214Z,13.50
2019-05-18T21:05:41.487Z,13.50
2019-05-18T21:08:17.736Z,13.50
2019-05-18T21:10:54.047Z,13.50
2019-05-18T21:13:30.244Z,13.50
2019-05-18T21:16:06.541Z,13.40
2019-05-18T21:18:42.816Z,13.40
2019-05-18T21:21:24.641Z,13.40
2019-05-18T21:23:56.932Z,13.30
2019-05-18T21:26:33.203Z,13.20
2019-05-18T21:29:09.429Z,13.20
2019-05-18T21:31:45.685Z,13.10
2019-05-18T21:34:21.914Z,13.10
2019-05-18T21:36:58.102Z,13.10
2019-05-18T21:39:34.364Z,13.10
2019-05-18T21:42:10.535Z,13.00
2019-05-18T21:44:46.744Z,13.00
2019-05-18T21:47:22.972Z,12.90
2019-05-18T21:49:59.161Z,12.90
2019-05-18T21:52:35.378Z,13.00
2019-05-18T21:55:11.829Z,12.90
2019-05-18T21:57:48.088Z,12.90
2019-05-18T22:00:24.444Z,13.00
2019-05-18T22:03:00.791Z,13.00
2019-05-18T22:05:37.200Z,13.00
2019-05-18T22:08:13.430Z,13.10
2019-05-18T22:10:49.688Z,13.10
2019-05-18T22:13:25.905Z,13.10
2019-05-18T22:16:02.091Z,13.10
2019-05-18T22:18:38.277Z,13.10
2019-05-18T22:21:14.398Z,13.20
2019-05-18T22:23:50.727Z,13.30
2019-05-18T22:26:27.038Z,13.30
2019-05-18T22:29:03.274Z,13.50
2019-05-18T22:31:39.449Z,13.50
2019-05-18T22:34:15.687Z,13.50
2019-05-18T22:36:52.079Z,13.50
2019-05-18T22:39:28.282Z,13.50
2019-05-18T22:42:04.535Z,13.50
2019-05-18T22:44:40.843Z,13.50
2019-05-18T22:47:17.053Z,13.40
2019-05-18T22:49:53.276Z,13.40
2019-05-18T22:52:29.628Z,13.40
2019-05-18T22:55:06.762Z,13.40
2019-05-18T22:57:43.004Z,13.40
2019-05-18T23:00:19.486Z,13.40
2019-05-18T23:03:10.113Z,13.40
2019-05-18T23:05:46.590Z,13.50
2019-05-18T23:08:25.756Z,13.50
2019-05-18T23:11:02.012Z,13.50
2019-05-18T23:13:38.325Z,13.50
2019-05-18T23:16:14.645Z,13.40
2019-05-18T23:18:56.989Z,13.40
2019-05-18T23:21:28.891Z,13.40
2019-05-18T23:24:05.129Z,13.40
2019-05-18T23:26:41.438Z,13.40
2019-05-18T23:29:17.665Z,13.50
2019-05-18T23:31:53.925Z,13.50
2019-05-18T23:34:30.080Z,13.60
2019-05-18T23:37:06.367Z,13.60
2019-05-18T23:39:42.707Z,13.60
2019-05-18T23:42:19.229Z,13.60
2019-05-18T23:44:55.438Z,13.60
2019-05-18T23:47:31.981Z,13.50
2019-05-18T23:50:08.709Z,13.40
2019-05-18T23:52:45.264Z,13.30
2019-05-18T23:55:24.162Z,13.30
2019-05-18T23:58:05.721Z,13.20
